Time;durP1;ratioP1;P1;durP2;ratioP2;P2;SDS_P1;SDS_P2;PMS_P1;PMS_P2;Temp;Humidity;BMP_temperature;BMP_pressure;BME280_temperature;BME280_humidity;BME280_pressure;Samples;Min_cycle;Max_cycle;Signal;HPM_P1;HPM_P2
2023/12/12 00:00:59;;;;;;;13.15;3.83;;;;;;;5.54;77.64;98943.34;4997738;28;20495;-48
2023/12/12 00:03:26;;;;;;;6.15;2.65;;;;;;;5.53;77.77;98939.09;4997069;28;20093;-47
2023/12/12 00:05:56;;;;;;;13.02;3.53;;;;;;;5.52;77.75;98934.81;4998275;28;20419;-46
2023/12/12 00:08:23;;;;;;;8.15;3.30;;;;;;;5.49;78.14;98942.50;5024007;28;20866;-51
2023/12/12 00:10:50;;;;;;;13.45;4.40;;;;;;;5.51;78.00;98940.81;4997025;28;20427;-57
2023/12/12 00:13:16;;;;;;;9.82;2.70;;;;;;;5.53;78.38;98941.66;4997707;28;20041;-50
2023/12/12 00:15:43;;;;;;;9.80;3.13;;;;;;;5.56;78.92;98946.81;4996288;28;20407;-49
2023/12/12 00:18:10;;;;;;;16.23;3.35;;;;;;;5.61;78.81;98945.06;5000700;28;20412;-44
2023/12/12 00:20:37;;;;;;;27.20;3.95;;;;;;;5.65;78.98;98933.94;4996168;28;20049;-49
2023/12/12 00:23:04;;;;;;;14.65;3.42;;;;;;;5.70;78.78;98925.38;4999815;28;20077;-44
2023/12/12 00:25:30;;;;;;;10.55;3.63;;;;;;;5.74;79.05;98911.69;4997107;28;20045;-50
2023/12/12 00:27:57;;;;;;;14.32;3.47;;;;;;;5.77;78.04;98899.69;4998648;28;20503;-47
2023/12/12 00:30:25;;;;;;;12.90;4.07;;;;;;;5.82;79.40;98894.53;4991420;28;20523;-52
2023/12/12 00:32:52;;;;;;;16.85;3.90;;;;;;;5.87;78.94;98902.22;4993237;28;20049;-51
2023/12/12 00:35:18;;;;;;;14.85;3.92;;;;;;;5.90;78.84;98908.22;5000118;28;20053;-45
2023/12/12 00:37:45;;;;;;;12.90;3.30;;;;;;;5.95;79.60;98904.78;4996302;28;20054;-52
2023/12/12 00:40:12;;;;;;;11.38;3.28;;;;;;;5.97;78.05;98897.91;4995462;28;20066;-45
2023/12/12 00:42:39;;;;;;;11.55;3.40;;;;;;;6.00;78.23;98903.06;4995501;28;20056;-41
2023/12/12 00:45:06;;;;;;;6.78;3.05;;;;;;;6.02;78.56;98891.06;4995805;28;20048;-53
2023/12/12 00:47:33;;;;;;;16.33;3.97;;;;;;;6.03;78.54;98882.50;5000132;28;20050;-47
2023/12/12 00:50:01;;;;;;;13.32;3.75;;;;;;;6.04;77.96;98876.50;4998579;28;20054;-49
2023/12/12 00:52:29;;;;;;;18.02;3.08;;;;;;;6.07;78.23;98888.50;4997430;28;20120;-44
2023/12/12 00:54:59;;;;;;;7.00;3.13;;;;;;;6.03;78.35;98888.53;4995964;28;20049;-50
2023/12/12 00:57:26;;;;;;;17.38;4.05;;;;;;;6.03;79.25;98869.63;4999510;28;20060;-46
2023/12/12 00:59:54;;;;;;;14.05;3.50;;;;;;;6.04;79.66;98873.94;4999133;28;20054;-41
2023/12/12 01:02:24;;;;;;;13.90;3.80;;;;;;;6.06;78.33;98867.09;4998186;28;20419;-45
2023/12/12 01:04:51;;;;;;;16.08;4.32;;;;;;;6.08;79.51;98859.38;4991747;28;20042;-45
2023/12/12 01:07:18;;;;;;;20.13;4.70;;;;;;;6.12;78.65;98853.38;4997038;28;20084;-46
2023/12/12 01:09:46;;;;;;;11.00;3.67;;;;;;;6.15;79.79;98843.91;4997302;28;20046;-52
2023/12/12 01:12:12;;;;;;;18.60;3.88;;;;;;;6.16;79.12;98837.06;4996013;28;20046;-50
2023/12/12 01:14:39;;;;;;;18.30;3.97;;;;;;;6.13;79.66;98837.94;4994595;28;20066;-51
2023/12/12 01:17:06;;;;;;;23.27;3.88;;;;;;;6.13;79.59;98843.06;4997349;28;20041;-47
2023/12/12 01:19:32;;;;;;;16.60;4.15;;;;;;;6.17;81.45;98836.19;4995053;28;20061;-45
2023/12/12 01:21:59;;;;;;;14.15;4.40;;;;;;;6.21;82.11;98829.34;4996930;28;20070;-53
2023/12/12 01:24:26;;;;;;;20.38;4.00;;;;;;;6.25;82.35;98825.88;4995721;28;20487;-45
2023/12/12 01:26:53;;;;;;;16.58;5.07;;;;;;;6.30;81.86;98826.72;4996376;28;20053;-48
2023/12/12 01:29:20;;;;;;;19.70;4.95;;;;;;;6.35;81.37;98827.53;4996951;28;20093;-46
2023/12/12 01:31:46;;;;;;;18.98;4.63;;;;;;;6.37;81.58;98810.38;4999457;28;20054;-43
2023/12/12 01:34:13;;;;;;;11.35;3.58;;;;;;;6.38;80.88;98812.09;4999352;28;20042;-43
2023/12/12 01:36:40;;;;;;;18.77;5.50;;;;;;;6.39;81.57;98808.66;5002618;28;20064;-52
2023/12/12 01:39:07;;;;;;;22.65;5.10;;;;;;;6.40;80.17;98804.38;5002049;28;20041;-49
2023/12/12 01:41:34;;;;;;;20.17;4.65;;;;;;;6.37;81.46;98794.94;5005839;28;20061;-45
2023/12/12 01:44:00;;;;;;;26.50;5.72;;;;;;;6.33;83.04;98792.41;5002603;28;20046;-51
2023/12/12 01:46:30;;;;;;;20.33;5.45;;;;;;;6.36;81.55;98787.25;4998304;28;20046;-46
2023/12/12 01:48:57;;;;;;;24.60;4.70;;;;;;;6.34;82.94;98773.53;5000849;28;20479;-47
2023/12/12 01:51:24;;;;;;;17.65;5.47;;;;;;;6.35;83.56;98765.81;5004577;28;20449;-45
2023/12/12 01:53:52;;;;;;;18.23;5.05;;;;;;;6.40;83.26;98769.22;5007932;28;20879;-50
2023/12/12 01:56:19;;;;;;;20.85;4.47;;;;;;;6.42;83.18;98756.34;5011237;28;20048;-44
2023/12/12 01:58:49;;;;;;;29.42;5.05;;;;;;;6.46;81.21;98758.03;5009052;28;20104;-47
2023/12/12 02:01:16;;;;;;;16.85;4.45;;;;;;;6.49;81.42;98752.03;5009863;28;20491;-50
2023/12/12 02:03:44;;;;;;;17.17;4.88;;;;;;;6.51;82.45;98758.00;5003564;28;20046;-48
2023/12/12 02:06:13;;;;;;;18.45;3.97;;;;;;;6.52;81.01;98752.00;5008816;28;20124;-56
2023/12/12 02:08:42;;;;;;;11.88;3.50;;;;;;;6.53;82.58;98753.69;5008207;28;20459;-46
2023/12/12 02:11:09;;;;;;;11.02;3.03;;;;;;;6.56;82.54;98739.09;5007284;28;20514;-49
2023/12/12 02:13:36;;;;;;;9.95;2.80;;;;;;;6.62;84.21;98733.03;5006538;28;20053;-50
2023/12/12 02:16:04;;;;;;;12.77;2.33;;;;;;;6.66;84.88;98729.56;5003706;28;20046;-47
2023/12/12 02:18:30;;;;;;;7.75;2.35;;;;;;;6.74;83.38;98726.09;5009714;28;20050;-48
2023/12/12 02:21:00;;;;;;;7.68;2.33;;;;;;;6.77;84.30;98720.91;5005543;28;20083;-48
2023/12/12 02:23:28;;;;;;;9.68;2.50;;;;;;;6.82;85.19;98709.72;5005114;28;20484;-47
2023/12/12 02:25:56;;;;;;;8.05;2.75;;;;;;;6.80;85.94;98698.56;5007815;28;20062;-51
2023/12/12 02:28:22;;;;;;;6.50;2.13;;;;;;;6.83;84.93;98695.16;5004897;28;20050;-48
2023/12/12 02:30:50;;;;;;;18.02;3.15;;;;;;;6.80;87.67;98692.59;5002807;28;20050;-52
2023/12/12 02:33:17;;;;;;;5.57;2.35;;;;;;;6.87;86.49;98694.25;5008221;28;20054;-45
2023/12/12 02:35:44;;;;;;;7.88;2.78;;;;;;;6.86;88.12;98689.94;5005513;28;20128;-47
2023/12/12 02:38:13;;;;;;;6.90;2.00;;;;;;;6.91;87.60;98689.91;5006160;28;20055;-54
2023/12/12 02:40:40;;;;;;;6.72;1.55;;;;;;;6.96;88.27;98680.44;5006997;28;20049;-53
2023/12/12 02:43:07;;;;;;;5.18;2.35;;;;;;;6.97;89.15;98678.69;5008137;28;20041;-56
2023/12/12 02:45:33;;;;;;;5.00;1.92;;;;;;;7.01;88.04;98678.66;5003312;28;20539;-43
2023/12/12 02:48:00;;;;;;;7.32;1.88;;;;;;;7.05;89.06;98674.31;4999449;28;20050;-51
2023/12/12 02:50:27;;;;;;;13.18;4.85;;;;;;;7.09;89.42;98660.53;5000175;28;20137;-46
2023/12/12 02:52:53;;;;;;;8.90;3.53;;;;;;;7.09;89.76;98660.53;5001874;28;20057;-45
2023/12/12 02:55:20;;;;;;;7.18;3.00;;;;;;;7.09;89.51;98650.25;4997736;28;20056;-51
2023/12/12 02:57:46;;;;;;;9.68;2.95;;;;;;;7.16;90.33;98649.31;4999151;28;20046;-46
2023/12/12 03:00:14;;;;;;;6.50;2.33;;;;;;;7.18;90.40;98650.16;5004011;28;20112;-44
2023/12/12 03:02:40;;;;;;;5.55;2.95;;;;;;;7.20;90.76;98645.81;4998130;28;20042;-45
2023/12/12 03:05:07;;;;;;;8.38;3.40;;;;;;;7.26;90.44;98644.91;5001642;28;20103;-53
2023/12/12 03:07:34;;;;;;;6.93;3.75;;;;;;;7.30;89.95;98633.69;5000804;28;20085;-47
2023/12/12 03:10:02;;;;;;;8.80;2.63;;;;;;;7.33;90.87;98632.81;5004320;28;20053;-45
2023/12/12 03:12:29;;;;;;;4.00;2.33;;;;;;;7.37;89.28;98634.50;5006429;28;20046;-51
2023/12/12 03:14:56;;;;;;;3.00;1.05;;;;;;;7.42;89.35;98637.84;5007843;28;20054;-49
2023/12/12 03:17:22;;;;;;;4.05;1.88;;;;;;;7.45;90.23;98631.81;5010312;28;20050;-46
2023/12/12 03:19:50;;;;;;;6.05;1.50;;;;;;;7.44;90.05;98620.63;5000240;28;20052;-46
2023/12/12 03:22:17;;;;;;;3.50;1.80;;;;;;;7.48;90.96;98620.59;5004455;28;20057;-44
2023/12/12 03:24:43;;;;;;;2.90;1.58;;;;;;;7.51;90.92;98620.56;5002953;28;20042;-48
2023/12/12 03:27:10;;;;;;;2.20;1.58;;;;;;;7.55;89.65;98599.03;5009391;28;20049;-45
2023/12/12 03:29:38;;;;;;;3.05;1.83;;;;;;;7.54;91.14;98595.59;5005665;28;20434;-47
2023/12/12 03:32:05;;;;;;;2.20;1.33;;;;;;;7.58;91.42;98586.13;5008774;28;20127;-46
2023/12/12 03:34:31;;;;;;;4.72;0.93;;;;;;;7.62;91.78;98572.31;5007527;28;20412;-47
2023/12/12 03:36:58;;;;;;;1.13;0.68;;;;;;;7.68;91.52;98582.53;5000070;28;20050;-46
2023/12/12 03:39:25;;;;;;;1.30;0.70;;;;;;;7.70;91.47;98565.31;5006102;28;20085;-48
2023/12/12 03:41:52;;;;;;;1.45;0.95;;;;;;;7.75;91.83;98559.25;5006476;28;20050;-45
2023/12/12 03:44:18;;;;;;;1.40;0.80;;;;;;;7.80;91.77;98554.88;5005157;28;20073;-48
2023/12/12 03:46:45;;;;;;;0.60;0.50;;;;;;;7.82;91.21;98545.38;5000672;28;20057;-49
2023/12/12 03:49:12;;;;;;;1.08;0.70;;;;;;;7.87;90.48;98545.31;4998881;28;20049;-47
2023/12/12 03:51:39;;;;;;;1.38;0.52;;;;;;;7.89;91.15;98539.25;5005762;28;20080;-51
2023/12/12 03:54:06;;;;;;;2.00;1.10;;;;;;;7.90;90.84;98535.81;5000368;28;20388;-45
2023/12/12 03:56:33;;;;;;;1.27;0.70;;;;;;;7.89;90.71;98533.25;4999780;28;20066;-46
2023/12/12 03:58:59;;;;;;;2.20;1.00;;;;;;;7.92;89.87;98526.31;5008276;28;20096;-45
2023/12/12 04:01:26;;;;;;;0.95;0.50;;;;;;;7.96;89.99;98517.66;5005348;28;20042;-46
2023/12/12 04:03:55;;;;;;;2.75;1.27;;;;;;;7.96;90.41;98499.63;5000570;28;20062;-48
2023/12/12 04:06:22;;;;;;;1.50;0.65;;;;;;;7.95;90.28;98505.66;5002916;28;20185;-48
2023/12/12 04:08:50;;;;;;;2.45;1.08;;;;;;;8.05;89.71;98531.28;5003169;28;20053;-48
2023/12/12 04:11:17;;;;;;;3.67;0.85;;;;;;;8.10;89.52;98521.72;5002100;28;20057;-47
2023/12/12 04:13:43;;;;;;;1.90;1.10;;;;;;;8.12;89.04;98519.97;5002025;28;20056;-47
2023/12/12 04:16:10;;;;;;;4.00;1.10;;;;;;;8.13;89.20;98511.34;5002516;28;20052;-46
2023/12/12 04:18:36;;;;;;;2.28;1.27;;;;;;;8.17;89.21;98513.00;5007951;28;20045;-52
2023/12/12 04:21:05;;;;;;;2.38;1.15;;;;;;;8.18;88.95;98535.31;5003896;28;20058;-48
2023/12/12 04:23:32;;;;;;;1.25;0.70;;;;;;;8.19;88.83;98519.00;5004026;28;20119;-45
2023/12/12 04:25:59;;;;;;;2.00;1.08;;;;;;;8.22;88.70;98518.94;5007450;28;20069;-48
2023/12/12 04:28:26;;;;;;;2.20;1.30;;;;;;;8.25;88.46;98514.59;5007907;28;20462;-49
2023/12/12 04:30:52;;;;;;;4.70;1.30;;;;;;;8.29;88.03;98516.25;5002446;28;20046;-48
2023/12/12 04:33:19;;;;;;;3.13;1.13;;;;;;;8.30;87.59;98510.19;5007287;28;20049;-47
2023/12/12 04:35:46;;;;;;;6.20;3.00;;;;;;;8.32;87.44;98511.91;5004957;28;22503;-42
2023/12/12 04:38:12;;;;;;;4.97;2.13;;;;;;;8.32;87.52;98511.03;5003417;28;20041;-51
2023/12/12 04:40:39;;;;;;;2.05;1.23;;;;;;;8.33;88.35;98512.72;4999175;28;20089;-50
2023/12/12 04:43:06;;;;;;;2.45;1.33;;;;;;;8.36;87.63;98507.53;5003890;28;20438;-54
2023/12/12 04:45:32;;;;;;;3.30;1.73;;;;;;;8.40;87.87;98514.31;4998763;28;20656;-47
2023/12/12 04:47:59;;;;;;;6.10;3.72;;;;;;;8.42;87.27;98522.03;4999872;28;20579;-46
2023/12/12 04:50:26;;;;;;;5.90;1.80;;;;;;;8.45;87.11;98512.50;4998729;28;20041;-54
2023/12/12 04:52:53;;;;;;;5.22;1.65;;;;;;;8.47;87.12;98505.59;5000097;28;20116;-50
2023/12/12 04:55:19;;;;;;;4.72;1.70;;;;;;;8.47;87.19;98513.31;5003902;28;20045;-46
2023/12/12 04:57:46;;;;;;;3.13;1.60;;;;;;;8.47;86.80;98513.31;5005842;28;20430;-48
2023/12/12 05:00:13;;;;;;;3.03;1.48;;;;;;;8.47;86.40;98509.88;4998189;28;20069;-45
2023/12/12 05:02:41;;;;;;;4.25;2.00;;;;;;;8.48;86.12;98512.44;5007813;28;20057;-47
2023/12/12 05:05:09;;;;;;;4.97;1.85;;;;;;;8.51;86.68;98510.69;4987884;28;20042;-51
2023/12/12 05:07:36;;;;;;;3.65;1.13;;;;;;;8.52;86.28;98517.53;5006258;28;20054;-49
2023/12/12 05:10:03;;;;;;;5.07;1.30;;;;;;;8.54;86.39;98505.50;4998871;28;20061;-51
2023/12/12 05:12:30;;;;;;;2.90;1.83;;;;;;;8.56;86.14;98493.41;5003564;28;20123;-55
2023/12/12 05:15:01;;;;;;;2.90;0.82;;;;;;;8.56;85.84;98494.28;5004998;28;20056;-51
2023/12/12 05:17:28;;;;;;;2.97;1.20;;;;;;;8.56;86.47;98488.25;5001405;28;20042;-48
2023/12/12 05:19:56;;;;;;;2.38;0.98;;;;;;;8.53;85.58;98496.91;5002250;28;20133;-44
2023/12/12 05:22:23;;;;;;;1.98;1.08;;;;;;;8.51;85.77;98490.88;5002538;28;20530;-52
2023/12/12 05:24:49;;;;;;;2.25;0.82;;;;;;;8.45;85.61;98491.84;5007449;28;20066;-54
2023/12/12 05:27:16;;;;;;;1.13;0.95;;;;;;;8.41;85.38;98490.22;5003126;28;20129;-49
2023/12/12 05:29:43;;;;;;;2.10;0.50;;;;;;;8.36;85.73;98494.63;5004779;28;20050;-53
2023/12/12 05:32:10;;;;;;;1.35;0.70;;;;;;;8.32;85.58;98474.91;5010627;28;20458;-47
2023/12/12 05:34:37;;;;;;;1.27;0.65;;;;;;;8.27;86.14;98482.72;5010634;28;20056;-50
2023/12/12 05:37:04;;;;;;;1.52;0.60;;;;;;;8.26;85.29;98485.34;5011433;28;20057;-50
2023/12/12 05:39:30;;;;;;;0.85;0.60;;;;;;;8.20;85.23;98476.84;5006799;28;20075;-49
2023/12/12 05:41:57;;;;;;;0.68;0.50;;;;;;;8.17;85.75;98479.47;5011344;28;20049;-53
2023/12/12 05:44:24;;;;;;;1.52;1.02;;;;;;;8.17;85.54;98476.06;5010767;28;20058;-50
2023/12/12 05:46:51;;;;;;;2.15;0.60;;;;;;;8.16;85.84;98464.88;5008009;28;20384;-50
2023/12/12 05:49:18;;;;;;;3.60;0.75;;;;;;;8.14;85.79;98461.47;5007220;28;20049;-45
2023/12/12 05:51:45;;;;;;;1.05;0.70;;;;;;;8.11;85.87;98461.56;5009744;28;20459;-51
2023/12/12 05:54:12;;;;;;;1.77;0.73;;;;;;;8.11;86.36;98451.25;5007700;28;20053;-47
2023/12/12 05:56:42;;;;;;;0.93;0.45;;;;;;;8.10;86.25;98452.09;5006718;28;20050;-47
2023/12/12 05:59:09;;;;;;;1.20;0.52;;;;;;;8.10;85.66;98454.66;5006910;28;20487;-45
2023/12/12 06:01:36;;;;;;;0.82;0.40;;;;;;;8.05;86.47;98449.63;5006314;28;20072;-43
2023/12/12 06:04:05;;;;;;;1.27;0.88;;;;;;;8.06;86.63;98458.19;5003426;28;20443;-46
2023/12/12 06:06:32;;;;;;;0.73;0.57;;;;;;;8.05;85.81;98451.34;5006348;28;20050;-51
2023/12/12 06:08:59;;;;;;;2.13;1.13;;;;;;;8.03;86.25;98445.34;5002634;28;20560;-53
2023/12/12 06:11:25;;;;;;;0.80;0.40;;;;;;;8.00;86.12;98445.41;5005039;28;20045;-49
2023/12/12 06:13:52;;;;;;;1.10;0.60;;;;;;;8.01;86.67;98444.53;5008154;28;20050;-48
2023/12/12 06:16:19;;;;;;;1.95;0.80;;;;;;;8.01;85.78;98441.97;5001071;28;20041;-45
2023/12/12 06:18:45;;;;;;;1.98;1.40;;;;;;;8.00;86.01;98448.00;5012557;28;20073;-43
2023/12/12 06:21:12;;;;;;;1.13;0.52;;;;;;;7.96;86.36;98448.06;5010552;28;20121;-51
2023/12/12 06:23:39;;;;;;;2.20;0.90;;;;;;;8.00;85.82;98448.84;5007614;28;20053;-50
2023/12/12 06:26:06;;;;;;;1.90;0.75;;;;;;;7.99;87.07;98452.28;5004343;28;20041;-52
2023/12/12 06:28:33;;;;;;;2.95;1.00;;;;;;;8.02;85.94;98451.38;5005097;28;20064;-47
2023/12/12 06:30:59;;;;;;;1.98;1.00;;;;;;;8.02;86.69;98443.66;5004274;28;20058;-51
2023/12/12 06:33:28;;;;;;;1.42;0.90;;;;;;;7.98;85.86;98435.97;5004940;28;20077;-53
2023/12/12 06:35:56;;;;;;;2.83;1.08;;;;;;;7.96;86.40;98442.91;5002538;28;20068;-51
2023/12/12 06:38:23;;;;;;;4.53;1.08;;;;;;;7.96;86.50;98442.03;5008479;28;20573;-53
2023/12/12 06:40:50;;;;;;;1.38;0.82;;;;;;;7.94;85.52;98436.06;5004273;28;20045;-49
2023/12/12 06:43:17;;;;;;;2.55;1.00;;;;;;;7.90;85.59;98437.84;5001515;28;20057;-43
2023/12/12 06:45:43;;;;;;;2.17;0.85;;;;;;;7.89;86.11;98435.28;5000056;28;20054;-45
2023/12/12 06:48:12;;;;;;;3.15;0.90;;;;;;;7.87;85.99;98432.72;5002227;28;20981;-53
2023/12/12 06:50:39;;;;;;;2.42;1.02;;;;;;;7.84;85.91;98433.63;5002360;28;20046;-45
2023/12/12 06:53:06;;;;;;;3.75;1.60;;;;;;;7.86;85.32;98436.19;5002835;28;20068;-48
2023/12/12 06:55:33;;;;;;;3.05;2.70;;;;;;;7.84;85.64;98443.13;5001130;28;20610;-45
2023/12/12 06:57:59;;;;;;;2.30;1.33;;;;;;;7.82;85.68;98440.56;5001679;28;20050;-47
2023/12/12 07:00:26;;;;;;;2.75;1.42;;;;;;;7.80;85.78;98436.31;5005771;28;20527;-49
2023/12/12 07:02:54;;;;;;;3.05;1.17;;;;;;;7.78;86.09;98428.59;5006134;28;20411;-46
2023/12/12 07:05:21;;;;;;;2.80;1.33;;;;;;;7.76;85.41;98426.91;5005332;28;20050;-51
2023/12/12 07:07:47;;;;;;;2.03;1.25;;;;;;;7.75;85.69;98425.22;5003854;28;20455;-50
2023/12/12 07:10:16;;;;;;;3.55;1.25;;;;;;;7.71;84.99;98427.84;5004098;28;20049;-47
2023/12/12 07:12:44;;;;;;;4.20;1.00;;;;;;;7.68;85.47;98422.75;5005246;28;20066;-50
2023/12/12 07:15:12;;;;;;;3.17;1.30;;;;;;;7.69;86.14;98414.16;5006431;28;20050;-47
2023/12/12 07:17:40;;;;;;;1.85;1.20;;;;;;;7.66;85.43;98419.34;5007752;28;20495;-50
2023/12/12 07:20:11;;;;;;;4.43;1.20;;;;;;;7.64;85.42;98418.53;5008406;28;20088;-49
2023/12/12 07:22:38;;;;;;;2.47;0.90;;;;;;;7.64;85.75;98415.97;5007551;28;20048;-51
2023/12/12 07:25:06;;;;;;;3.97;1.17;;;;;;;7.61;85.55;98410.84;5007255;28;20388;-51
2023/12/12 07:27:32;;;;;;;2.60;1.00;;;;;;;7.61;85.23;98410.00;5006441;28;20081;-47
2023/12/12 07:30:00;;;;;;;3.22;1.38;;;;;;;7.60;86.02;98409.13;5007169;28;20045;-45
2023/12/12 07:32:27;;;;;;;3.72;1.70;;;;;;;7.59;85.30;98412.59;4999268;28;20099;-46
2023/12/12 07:34:53;;;;;;;6.60;1.58;;;;;;;7.57;85.72;98411.78;5005888;28;20052;-55
2023/12/12 07:37:20;;;;;;;2.03;1.00;;;;;;;7.57;86.08;98412.63;5001383;28;20042;-49
2023/12/12 07:39:47;;;;;;;2.90;1.20;;;;;;;7.54;85.82;98412.66;5001314;28;20450;-42
2023/12/12 07:42:14;;;;;;;3.65;1.20;;;;;;;7.52;85.89;98416.16;5005277;28;20052;-53
2023/12/12 07:44:40;;;;;;;2.78;1.13;;;;;;;7.49;85.08;98406.75;5007318;28;20053;-47
2023/12/12 07:47:07;;;;;;;4.45;1.00;;;;;;;7.49;85.73;98405.91;5007681;28;20049;-51
2023/12/12 07:49:34;;;;;;;2.45;1.27;;;;;;;7.44;84.61;98401.66;5007172;28;20055;-49
2023/12/12 07:52:01;;;;;;;5.20;1.42;;;;;;;7.42;85.71;98408.59;4999933;28;20135;-51
2023/12/12 07:54:27;;;;;;;3.05;1.15;;;;;;;7.41;84.59;98399.16;5000885;28;20494;-48
2023/12/12 07:56:54;;;;;;;6.10;1.20;;;;;;;7.41;84.94;98404.31;5005125;28;20046;-46
2023/12/12 07:59:21;;;;;;;4.07;0.82;;;;;;;7.41;85.59;98403.44;5001264;28;20652;-50
2023/12/12 08:01:47;;;;;;;4.82;1.33;;;;;;;7.39;85.10;98395.75;4998890;28;20046;-50
2023/12/12 08:04:15;;;;;;;5.03;1.10;;;;;;;7.38;85.52;98391.47;4995988;28;20050;-52
2023/12/12 08:06:42;;;;;;;3.00;1.23;;;;;;;7.36;85.46;98390.63;4994748;28;20053;-44
2023/12/12 08:09:09;;;;;;;4.32;1.52;;;;;;;7.33;85.50;98386.41;5001191;28;20073;-53
2023/12/12 08:11:35;;;;;;;3.97;1.50;;;;;;;7.35;85.29;98388.94;4999613;28;20045;-50
2023/12/12 08:14:02;;;;;;;4.18;1.67;;;;;;;7.33;85.26;98380.41;5003333;28;20479;-47
2023/12/12 08:16:31;;;;;;;3.05;1.17;;;;;;;7.32;85.34;98389.00;4996025;28;20522;-47
2023/12/12 08:18:57;;;;;;;5.53;0.85;;;;;;;7.30;84.35;98388.19;5001395;28;20060;-45
2023/12/12 08:21:24;;;;;;;6.22;1.92;;;;;;;7.30;85.35;98391.59;4996398;28;20485;-48
2023/12/12 08:23:51;;;;;;;5.00;0.70;;;;;;;7.30;85.13;98393.34;5001552;28;20129;-49
2023/12/12 08:26:18;;;;;;;3.35;1.27;;;;;;;7.30;85.06;98385.59;5003253;28;20042;-45
2023/12/12 08:28:44;;;;;;;2.50;0.93;;;;;;;7.29;85.39;98384.75;5003750;28;20053;-46
2023/12/12 08:31:11;;;;;;;4.50;0.90;;;;;;;7.29;85.36;98389.03;5006161;28;20050;-53
2023/12/12 08:33:38;;;;;;;4.78;0.77;;;;;;;7.28;84.49;98380.47;5003179;28;20045;-50
2023/12/12 08:36:06;;;;;;;5.63;1.02;;;;;;;7.27;84.24;98375.34;5001099;28;20048;-50
2023/12/12 08:38:33;;;;;;;2.63;0.70;;;;;;;7.26;84.42;98374.50;5001170;28;20054;-49
2023/12/12 08:41:00;;;;;;;4.57;0.93;;;;;;;7.25;84.76;98366.78;5006250;28;20041;-53
2023/12/12 08:43:27;;;;;;;4.10;0.60;;;;;;;7.26;85.66;98364.19;5006252;28;20112;-50
2023/12/12 08:45:55;;;;;;;2.92;0.80;;;;;;;7.26;84.60;98363.34;5006214;28;20064;-47
2023/12/12 08:48:23;;;;;;;2.78;1.20;;;;;;;7.28;85.54;98361.59;5001915;28;20052;-53
2023/12/12 08:50:50;;;;;;;2.10;0.70;;;;;;;7.27;85.18;98368.47;5002953;28;20081;-45
2023/12/12 08:53:17;;;;;;;6.82;1.05;;;;;;;7.32;85.28;98365.81;4985452;28;20133;-43
2023/12/12 08:55:45;;;;;;;5.30;1.73;;;;;;;7.36;85.78;98364.88;4982050;28;20057;-53
2023/12/12 08:58:12;;;;;;;8.20;1.95;;;;;;;7.39;86.95;98362.25;4987741;28;20228;-50
2023/12/12 09:00:38;;;;;;;2.30;0.65;;;;;;;7.43;86.93;98351.03;4986935;28;20038;-46
2023/12/12 09:03:06;;;;;;;6.72;1.80;;;;;;;7.51;86.63;98355.19;4980931;28;20069;-47
2023/12/12 09:05:36;;;;;;;3.72;1.83;;;;;;;7.55;86.27;98355.13;4981356;28;20047;-54
2023/12/12 09:08:03;;;;;;;3.83;1.63;;;;;;;7.59;87.21;98350.75;4984958;28;20050;-49
2023/12/12 09:10:30;;;;;;;4.45;1.40;;;;;;;7.64;87.37;98343.81;4983942;28;20054;-54
2023/12/12 09:12:57;;;;;;;4.40;1.90;;;;;;;7.67;87.14;98342.91;4985406;28;20213;-48
2023/12/12 09:15:23;;;;;;;3.55;1.63;;;;;;;7.72;87.17;98336.78;4986456;28;20415;-51
2023/12/12 09:17:50;;;;;;;3.03;1.50;;;;;;;7.74;87.79;98334.19;4980390;28;20133;-46
2023/12/12 09:20:37;;;;;;;4.50;1.65;;;;;;;7.76;87.62;98331.56;4981175;28;20050;-45
2023/12/12 09:23:04;;;;;;;5.22;2.72;;;;;;;7.84;87.39;98340.00;4981942;28;20708;-45
2023/12/12 09:25:30;;;;;;;5.78;2.20;;;;;;;7.92;88.29;98345.00;4986462;28;20066;-45
2023/12/12 09:27:57;;;;;;;10.30;2.10;;;;;;;8.02;88.00;98345.66;4985706;28;20046;-41
2023/12/12 09:30:24;;;;;;;7.03;2.03;;;;;;;8.12;87.70;98333.44;4987419;28;20085;-56
2023/12/12 09:32:51;;;;;;;4.78;1.95;;;;;;;8.23;88.42;98332.34;4985401;28;20049;-45
2023/12/12 09:35:18;;;;;;;2.75;1.25;;;;;;;8.48;88.46;98323.25;4981646;28;20054;-48
2023/12/12 09:37:45;;;;;;;2.58;1.58;;;;;;;8.77;88.04;98331.22;4980488;28;20065;-47
2023/12/12 09:40:12;;;;;;;7.03;1.92;;;;;;;9.15;87.73;98326.88;4987113;28;20038;-49
2023/12/12 09:42:40;;;;;;;10.75;2.08;;;;;;;9.25;86.58;98323.19;4985567;28;20070;-51
2023/12/12 09:45:13;;;;;;;4.38;1.83;;;;;;;9.25;86.52;98318.03;4985398;28;20042;-49
2023/12/12 09:47:42;;;;;;;8.27;3.95;;;;;;;9.18;85.88;98316.47;4985764;28;20579;-45
2023/12/12 09:50:10;;;;;;;4.78;1.42;;;;;;;9.10;86.20;98315.81;4972853;28;20058;-47
2023/12/12 09:52:37;;;;;;;4.63;1.30;;;;;;;9.06;86.46;98306.47;4998354;28;20137;-49
2023/12/12 09:55:05;;;;;;;11.50;2.88;;;;;;;9.09;86.42;98311.56;4999863;28;20053;-50
2023/12/12 09:57:33;;;;;;;7.45;2.42;;;;;;;9.13;86.30;98308.84;5000975;28;20046;-49
2023/12/12 10:00:00;;;;;;;8.57;2.40;;;;;;;9.17;86.59;98312.22;5004089;28;20060;-51
2023/12/12 10:02:33;;;;;;;10.10;3.10;;;;;;;9.24;86.11;98298.25;4999702;28;20085;-51
2023/12/12 10:05:04;;;;;;;13.30;1.67;;;;;;;9.28;85.92;98290.44;5000731;28;20384;-48
2023/12/12 10:07:33;;;;;;;7.32;2.13;;;;;;;9.41;85.77;98284.03;4996260;28;20066;-48
2023/12/12 10:10:04;;;;;;;5.35;1.92;;;;;;;9.54;86.10;98288.88;5006184;28;20046;-47
2023/12/12 10:12:31;;;;;;;;;;;;;;;9.46;86.18;98284.75;5008673;28;20049;-52
2023/12/12 10:14:58;;;;;;;7.05;1.90;;;;;;;9.47;86.36;98280.44;5007157;28;19925;-48
2023/12/12 10:17:26;;;;;;;5.88;1.83;;;;;;;9.46;86.31;98289.09;5008263;28;20041;-51
2023/12/12 10:19:59;;;;;;;9.25;2.17;;;;;;;9.44;86.30;98276.22;5003021;28;20073;-49
2023/12/12 10:22:31;;;;;;;10.23;1.73;;;;;;;9.44;85.59;98271.03;5006600;28;20053;-54
2023/12/12 10:25:15;;;;;;;9.10;2.22;;;;;;;9.49;86.14;98269.19;5002089;28;20405;-51
2023/12/12 10:27:42;;;;;;;4.95;1.33;;;;;;;9.60;86.63;98260.28;5005456;28;20058;-55
2023/12/12 10:30:12;;;;;;;12.23;2.20;;;;;;;9.69;86.44;98254.03;5002083;28;20057;-41
2023/12/12 10:32:39;;;;;;;10.15;2.60;;;;;;;9.69;85.68;98252.28;5002461;28;20046;-50
2023/12/12 10:35:06;;;;;;;8.82;2.45;;;;;;;9.66;86.32;98244.59;5004239;28;20089;-44
2023/12/12 10:37:33;;;;;;;8.40;1.85;;;;;;;9.69;85.94;98244.50;5006618;28;20439;-46
2023/12/12 10:40:17;;;;;;;4.10;1.58;;;;;;;9.62;85.59;98243.84;5002350;28;20476;-51
2023/12/12 10:42:44;;;;;;;12.80;2.60;;;;;;;9.63;86.06;98244.72;4997956;28;20546;-53
2023/12/12 10:45:13;;;;;;;10.27;1.75;;;;;;;9.62;85.32;98237.81;5004507;28;20922;-52
2023/12/12 10:47:44;;;;;;;8.98;1.92;;;;;;;9.63;85.75;98239.53;4998649;28;20045;-53
2023/12/12 10:50:13;;;;;;;12.20;2.22;;;;;;;9.62;86.08;98232.66;5001460;28;20046;-48
2023/12/12 10:52:42;;;;;;;11.18;1.83;;;;;;;9.60;86.29;98229.28;5001415;28;20069;-48
2023/12/12 10:55:10;;;;;;;11.75;2.22;;;;;;;9.63;85.56;98218.84;5004783;28;20056;-46
2023/12/12 10:57:41;;;;;;;9.90;1.70;;;;;;;9.66;85.83;98213.56;5003863;28;20092;-48
2023/12/12 11:00:13;;;;;;;6.72;1.42;;;;;;;9.63;85.69;98214.50;5006827;28;20147;-45
2023/12/12 11:02:45;;;;;;;6.75;1.60;;;;;;;9.70;85.60;98215.22;5003036;28;20092;-49
2023/12/12 11:05:14;;;;;;;8.77;1.45;;;;;;;9.72;86.25;98218.59;5003911;28;20052;-46
2023/12/12 11:07:46;;;;;;;6.05;1.48;;;;;;;9.72;85.65;98221.16;5006849;28;20045;-53
2023/12/12 11:10:15;;;;;;;5.75;1.20;;;;;;;9.73;85.45;98220.25;4994614;28;20495;-50
2023/12/12 11:12:48;;;;;;;8.85;1.75;;;;;;;9.73;85.32;98209.94;5002635;28;20053;-55
2023/12/12 11:15:18;;;;;;;10.20;1.35;;;;;;;9.76;85.96;98214.16;5005852;28;20050;-45
2023/12/12 11:17:47;;;;;;;8.18;1.35;;;;;;;9.77;86.28;98213.28;5000949;28;20101;-46
2023/12/12 11:20:15;;;;;;;8.13;1.10;;;;;;;9.73;85.47;98207.34;5005200;28;20089;-53
2023/12/12 11:22:48;;;;;;;11.45;1.80;;;;;;;9.74;85.80;98209.06;5005087;28;20555;-43
2023/12/12 11:25:19;;;;;;;2.92;1.05;;;;;;;9.65;85.99;98211.88;4995507;28;20081;-47
2023/12/12 11:27:48;;;;;;;9.30;1.48;;;;;;;9.66;86.56;98218.75;5003185;28;20045;-44
2023/12/12 11:30:17;;;;;;;9.43;1.13;;;;;;;9.68;86.41;98210.94;5001777;28;20108;-46
2023/12/12 11:32:45;;;;;;;13.75;2.60;;;;;;;9.66;86.20;98208.41;4997578;28;20065;-45
2023/12/12 11:35:30;;;;;;;16.95;1.45;;;;;;;9.66;85.48;98208.41;5005773;28;20126;-44
2023/12/12 11:40:37;;;;;;;9.10;3.85;;;;;;;9.73;86.24;98194.41;5009539;27;20750;-52
2023/12/12 11:43:23;;;;;;;7.85;1.73;;;;;;;9.71;85.83;98175.53;4976253;28;20051;-46